sensor_id;sensor_type;location;lat;lon;timestamp;pressure;altitude;pressure_sealevel;temperature;humidity
50302;BME280;36550;50.472;19.744;2023-04-10T00:02:25;98839.15;;;7.38;83.46
50302;BME280;36550;50.472;19.744;2023-04-10T00:05:09;98841.31;;;7.37;83.46
50302;BME280;36550;50.472;19.744;2023-04-10T00:07:53;98840.09;;;7.40;83.44
50302;BME280;36550;50.472;19.744;2023-04-10T00:10:37;98838.55;;;7.44;83.46
50302;BME280;36550;50.472;19.744;2023-04-10T00:13:22;98829.60;;;7.47;83.52
50302;BME280;36550;50.472;19.744;2023-04-10T00:16:07;98829.35;;;7.52;83.61
50302;BME280;36550;50.472;19.744;2023-04-10T00:18:51;98828.96;;;7.55;83.69
50302;BME280;36550;50.472;19.744;2023-04-10T00:21:34;98825.02;;;7.57;83.76
50302;BME280;36550;50.472;19.744;2023-04-10T00:24:19;98827.56;;;7.59;83.70
50302;BME280;36550;50.472;19.744;2023-04-10T00:27:02;98824.95;;;7.62;83.83
50302;BME280;36550;50.472;19.744;2023-04-10T00:29:46;98823.97;;;7.64;83.88
50302;BME280;36550;50.472;19.744;2023-04-10T00:32:30;98820.21;;;7.69;83.85
50302;BME280;36550;50.472;19.744;2023-04-10T00:35:14;98819.41;;;7.73;83.72
50302;BME280;36550;50.472;19.744;2023-04-10T00:37:58;98817.65;;;7.76;83.79
50302;BME280;36550;50.472;19.744;2023-04-10T00:40:42;98819.48;;;7.79;83.80
50302;BME280;36550;50.472;19.744;2023-04-10T00:43:26;98817.40;;;7.80;83.88
50302;BME280;36550;50.472;19.744;2023-04-10T00:46:10;98814.70;;;7.82;83.93
50302;BME280;36550;50.472;19.744;2023-04-10T00:48:54;98816.48;;;7.85;83.97
50302;BME280;36550;50.472;19.744;2023-04-10T00:51:39;98814.20;;;7.86;84.14
50302;BME280;36550;50.472;19.744;2023-04-10T00:54:24;98817.05;;;7.85;83.96
50302;BME280;36550;50.472;19.744;2023-04-10T00:57:09;98819.52;;;7.89;84.08
50302;BME280;36550;50.472;19.744;2023-04-10T00:59:54;98820.77;;;7.92;83.98
50302;BME280;36550;50.472;19.744;2023-04-10T01:02:38;98821.27;;;7.95;84.03
50302;BME280;36550;50.472;19.744;2023-04-10T01:05:22;98822.46;;;7.98;84.09
50302;BME280;36550;50.472;19.744;2023-04-10T01:08:34;98817.66;;;8.02;84.18
50302;BME280;36550;50.472;19.744;2023-04-10T01:17:42;98814.63;;;8.10;84.27
50302;BME280;36550;50.472;19.744;2023-04-10T01:20:31;98811.20;;;8.11;84.33
50302;BME280;36550;50.472;19.744;2023-04-10T01:26:41;98814.70;;;8.09;84.49
50302;BME280;36550;50.472;19.744;2023-04-10T01:29:32;98812.29;;;8.08;84.40
50302;BME280;36550;50.472;19.744;2023-04-10T01:32:21;98810.11;;;8.09;84.31
50302;BME280;36550;50.472;19.744;2023-04-10T01:35:05;98806.86;;;8.11;84.42
50302;BME280;36550;50.472;19.744;2023-04-10T01:37:51;98807.95;;;8.15;84.44
50302;BME280;36550;50.472;19.744;2023-04-10T01:40:38;98810.89;;;8.15;85.04
50302;BME280;36550;50.472;19.744;2023-04-10T01:43:24;98810.29;;;8.11;84.92
50302;BME280;36550;50.472;19.744;2023-04-10T01:46:11;98804.61;;;8.11;84.85
50302;BME280;36550;50.472;19.744;2023-04-10T01:48:56;98797.61;;;8.11;84.87
50302;BME280;36550;50.472;19.744;2023-04-10T01:51:44;98799.78;;;8.12;84.92
50302;BME280;36550;50.472;19.744;2023-04-10T01:54:31;98800.20;;;8.16;84.78
50302;BME280;36550;50.472;19.744;2023-04-10T01:57:16;98803.25;;;8.19;84.93
50302;BME280;36550;50.472;19.744;2023-04-10T02:00:00;98803.16;;;8.18;84.88
50302;BME280;36550;50.472;19.744;2023-04-10T02:02:44;98807.19;;;8.17;84.68
50302;BME280;36550;50.472;19.744;2023-04-10T02:05:36;98807.30;;;8.19;84.93
50302;BME280;36550;50.472;19.744;2023-04-10T02:08:38;98804.75;;;8.21;84.97
50302;BME280;36550;50.472;19.744;2023-04-10T02:11:31;98808.00;;;8.21;85.16
50302;BME280;36550;50.472;19.744;2023-04-10T02:14:19;98806.32;;;8.19;85.15
50302;BME280;36550;50.472;19.744;2023-04-10T02:17:05;98805.41;;;8.18;85.15
50302;BME280;36550;50.472;19.744;2023-04-10T02:19:49;98804.38;;;8.19;85.13
50302;BME280;36550;50.472;19.744;2023-04-10T02:22:35;98812.02;;;8.20;85.06
50302;BME280;36550;50.472;19.744;2023-04-10T02:25:19;98818.54;;;8.20;85.13
50302;BME280;36550;50.472;19.744;2023-04-10T02:28:04;98818.29;;;8.22;85.23
50302;BME280;36550;50.472;19.744;2023-04-10T02:30:49;98817.74;;;8.24;85.23
50302;BME280;36550;50.472;19.744;2023-04-10T02:33:33;98823.66;;;8.25;85.34
50302;BME280;36550;50.472;19.744;2023-04-10T02:36:17;98823.46;;;8.24;85.46
50302;BME280;36550;50.472;19.744;2023-04-10T02:39:01;98817.21;;;8.19;85.44
50302;BME280;36550;50.472;19.744;2023-04-10T02:41:44;98813.64;;;8.18;85.33
50302;BME280;36550;50.472;19.744;2023-04-10T02:44:29;98809.36;;;8.18;85.58
50302;BME280;36550;50.472;19.744;2023-04-10T02:47:14;98803.65;;;8.19;85.45
50302;BME280;36550;50.472;19.744;2023-04-10T02:49:58;98804.38;;;8.21;85.44
50302;BME280;36550;50.472;19.744;2023-04-10T02:52:42;98803.77;;;8.21;85.57
50302;BME280;36550;50.472;19.744;2023-04-10T02:55:26;98802.00;;;8.20;85.58
50302;BME280;36550;50.472;19.744;2023-04-10T02:58:10;98803.58;;;8.19;85.74
50302;BME280;36550;50.472;19.744;2023-04-10T03:00:54;98797.55;;;8.18;85.66
50302;BME280;36550;50.472;19.744;2023-04-10T03:03:39;98801.25;;;8.19;85.59
50302;BME280;36550;50.472;19.744;2023-04-10T03:06:23;98801.45;;;8.21;85.62
50302;BME280;36550;50.472;19.744;2023-04-10T03:09:09;98800.03;;;8.20;85.60
50302;BME280;36550;50.472;19.744;2023-04-10T03:11:53;98802.24;;;8.21;85.75
50302;BME280;36550;50.472;19.744;2023-04-10T03:14:37;98800.59;;;8.20;85.65
50302;BME280;36550;50.472;19.744;2023-04-10T03:17:23;98797.91;;;8.19;85.78
50302;BME280;36550;50.472;19.744;2023-04-10T03:20:08;98796.86;;;8.19;85.83
50302;BME280;36550;50.472;19.744;2023-04-10T03:22:52;98797.14;;;8.19;85.78
50302;BME280;36550;50.472;19.744;2023-04-10T03:25:36;98796.81;;;8.20;85.86
50302;BME280;36550;50.472;19.744;2023-04-10T03:28:20;98798.99;;;8.19;86.00
50302;BME280;36550;50.472;19.744;2023-04-10T03:31:05;98801.20;;;8.17;85.91
50302;BME280;36550;50.472;19.744;2023-04-10T03:33:49;98806.23;;;8.15;85.99
50302;BME280;36550;50.472;19.744;2023-04-10T03:36:33;98809.32;;;8.15;86.04
50302;BME280;36550;50.472;19.744;2023-04-10T03:39:17;98812.70;;;8.14;86.17
50302;BME280;36550;50.472;19.744;2023-04-10T03:42:01;98816.75;;;8.13;86.34
50302;BME280;36550;50.472;19.744;2023-04-10T03:44:45;98817.30;;;8.10;86.15
50302;BME280;36550;50.472;19.744;2023-04-10T03:47:30;98817.23;;;8.09;86.15
50302;BME280;36550;50.472;19.744;2023-04-10T03:50:14;98810.67;;;8.10;86.12
50302;BME280;36550;50.472;19.744;2023-04-10T03:52:59;98810.71;;;8.12;86.18
50302;BME280;36550;50.472;19.744;2023-04-10T03:55:44;98808.06;;;8.14;86.24
50302;BME280;36550;50.472;19.744;2023-04-10T03:58:28;98810.77;;;8.13;86.72
50302;BME280;36550;50.472;19.744;2023-04-10T04:01:12;98810.52;;;8.12;86.67
50302;BME280;36550;50.472;19.744;2023-04-10T04:03:56;98810.04;;;8.12;86.56
50302;BME280;36550;50.472;19.744;2023-04-10T04:06:40;98810.36;;;8.14;86.51
50302;BME280;36550;50.472;19.744;2023-04-10T04:09:24;98814.42;;;8.14;86.53
50302;BME280;36550;50.472;19.744;2023-04-10T04:12:08;98819.05;;;8.15;86.58
50302;BME280;36550;50.472;19.744;2023-04-10T04:14:52;98823.11;;;8.11;87.14
50302;BME280;36550;50.472;19.744;2023-04-10T04:17:36;98822.78;;;8.06;86.68
50302;BME280;36550;50.472;19.744;2023-04-10T04:20:21;98822.77;;;8.05;86.86
50302;BME280;36550;50.472;19.744;2023-04-10T04:23:04;98822.16;;;8.02;86.86
50302;BME280;36550;50.472;19.744;2023-04-10T04:25:48;98824.23;;;7.98;87.81
50302;BME280;36550;50.472;19.744;2023-04-10T04:28:35;98823.87;;;7.95;87.93
50302;BME280;36550;50.472;19.744;2023-04-10T04:31:19;98825.64;;;7.94;87.85
50302;BME280;36550;50.472;19.744;2023-04-10T04:34:03;98833.33;;;7.93;87.94
50302;BME280;36550;50.472;19.744;2023-04-10T04:36:47;98834.92;;;7.93;87.83
50302;BME280;36550;50.472;19.744;2023-04-10T04:39:31;98835.80;;;7.90;87.88
50302;BME280;36550;50.472;19.744;2023-04-10T04:42:15;98834.38;;;7.88;88.19
50302;BME280;36550;50.472;19.744;2023-04-10T04:44:59;98835.83;;;7.87;88.01
50302;BME280;36550;50.472;19.744;2023-04-10T04:47:43;98836.02;;;7.84;88.10
50302;BME280;36550;50.472;19.744;2023-04-10T04:50:27;98840.95;;;7.80;89.03
50302;BME280;36550;50.472;19.744;2023-04-10T04:53:10;98845.64;;;7.76;88.80
50302;BME280;36550;50.472;19.744;2023-04-10T04:55:54;98850.35;;;7.68;89.55
50302;BME280;36550;50.472;19.744;2023-04-10T04:58:37;98851.05;;;7.64;89.82
50302;BME280;36550;50.472;19.744;2023-04-10T05:01:22;98854.10;;;7.61;89.94
50302;BME280;36550;50.472;19.744;2023-04-10T05:04:06;98854.56;;;7.58;90.68
50302;BME280;36550;50.472;19.744;2023-04-10T05:06:50;98858.98;;;7.57;90.35
50302;BME280;36550;50.472;19.744;2023-04-10T05:09:34;98863.12;;;7.55;90.97
50302;BME280;36550;50.472;19.744;2023-04-10T05:12:18;98865.39;;;7.53;91.05
50302;BME280;36550;50.472;19.744;2023-04-10T05:15:03;98867.73;;;7.54;90.98
50302;BME280;36550;50.472;19.744;2023-04-10T05:17:47;98865.28;;;7.56;91.43
50302;BME280;36550;50.472;19.744;2023-04-10T05:20:34;98869.38;;;7.58;91.84
50302;BME280;36550;50.472;19.744;2023-04-10T05:23:18;98876.19;;;7.58;92.02
50302;BME280;36550;50.472;19.744;2023-04-10T05:26:02;98873.98;;;7.59;91.77
50302;BME280;36550;50.472;19.744;2023-04-10T05:28:46;98875.30;;;7.59;92.02
50302;BME280;36550;50.472;19.744;2023-04-10T05:31:30;98871.38;;;7.60;92.18
50302;BME280;36550;50.472;19.744;2023-04-10T05:34:14;98872.27;;;7.62;92.05
50302;BME280;36550;50.472;19.744;2023-04-10T05:36:59;98873.33;;;7.64;91.87
50302;BME280;36550;50.472;19.744;2023-04-10T05:39:43;98874.45;;;7.64;91.83
50302;BME280;36550;50.472;19.744;2023-04-10T05:42:27;98876.86;;;7.66;92.02
50302;BME280;36550;50.472;19.744;2023-04-10T05:45:11;98877.41;;;7.70;91.77
50302;BME280;36550;50.472;19.744;2023-04-10T05:47:55;98875.77;;;7.70;91.96
50302;BME280;36550;50.472;19.744;2023-04-10T05:50:39;98875.84;;;7.70;92.06
50302;BME280;36550;50.472;19.744;2023-04-10T05:53:27;98875.14;;;7.73;91.66
50302;BME280;36550;50.472;19.744;2023-04-10T05:56:13;98875.02;;;7.76;91.78
50302;BME280;36550;50.472;19.744;2023-04-10T05:58:58;98875.64;;;7.79;91.68
50302;BME280;36550;50.472;19.744;2023-04-10T06:01:42;98877.34;;;7.80;91.24
50302;BME280;36550;50.472;19.744;2023-04-10T06:04:27;98880.52;;;7.84;91.25
50302;BME280;36550;50.472;19.744;2023-04-10T06:07:11;98880.36;;;7.85;91.34
50302;BME280;36550;50.472;19.744;2023-04-10T06:09:55;98879.45;;;7.84;91.38
50302;BME280;36550;50.472;19.744;2023-04-10T06:12:39;98880.80;;;7.83;91.43
50302;BME280;36550;50.472;19.744;2023-04-10T06:15:23;98884.46;;;7.82;91.40
50302;BME280;36550;50.472;19.744;2023-04-10T06:18:07;98879.02;;;7.78;91.90
50302;BME280;36550;50.472;19.744;2023-04-10T06:20:51;98875.59;;;7.79;91.62
50302;BME280;36550;50.472;19.744;2023-04-10T06:23:36;98877.81;;;7.79;92.16
50302;BME280;36550;50.472;19.744;2023-04-10T06:26:19;98879.48;;;7.83;91.62
50302;BME280;36550;50.472;19.744;2023-04-10T06:29:03;98877.98;;;7.86;91.53
50302;BME280;36550;50.472;19.744;2023-04-10T06:31:47;98881.34;;;7.88;91.61
50302;BME280;36550;50.472;19.744;2023-04-10T06:34:31;98884.58;;;7.92;91.64
50302;BME280;36550;50.472;19.744;2023-04-10T06:37:15;98888.52;;;7.95;91.62
50302;BME280;36550;50.472;19.744;2023-04-10T06:40:07;98885.08;;;7.96;91.67
50302;BME280;36550;50.472;19.744;2023-04-10T06:42:51;98881.05;;;8.03;91.37
50302;BME280;36550;50.472;19.744;2023-04-10T06:45:35;98875.28;;;8.14;91.32
50302;BME280;36550;50.472;19.744;2023-04-10T06:48:19;98873.65;;;8.21;91.40
50302;BME280;36550;50.472;19.744;2023-04-10T06:51:03;98874.64;;;8.30;91.18
50302;BME280;36550;50.472;19.744;2023-04-10T06:53:47;98873.27;;;8.41;90.84
50302;BME280;36550;50.472;19.744;2023-04-10T06:56:31;98878.77;;;8.51;90.65
50302;BME280;36550;50.472;19.744;2023-04-10T06:59:16;98877.50;;;8.58;90.39
50302;BME280;36550;50.472;19.744;2023-04-10T07:02:01;98882.84;;;8.59;90.14
50302;BME280;36550;50.472;19.744;2023-04-10T07:04:45;98883.02;;;8.64;89.95
50302;BME280;36550;50.472;19.744;2023-04-10T07:07:29;98883.51;;;8.77;89.78
50302;BME280;36550;50.472;19.744;2023-04-10T07:10:14;98887.42;;;8.85;89.79
50302;BME280;36550;50.472;19.744;2023-04-10T07:12:58;98891.36;;;8.93;89.37
50302;BME280;36550;50.472;19.744;2023-04-10T07:15:42;98889.20;;;9.02;89.15
50302;BME280;36550;50.472;19.744;2023-04-10T07:18:26;98895.33;;;9.21;88.87
50302;BME280;36550;50.472;19.744;2023-04-10T07:21:11;98893.30;;;9.31;88.31
50302;BME280;36550;50.472;19.744;2023-04-10T07:23:55;98900.62;;;9.41;88.04
50302;BME280;36550;50.472;19.744;2023-04-10T07:26:39;98904.02;;;9.50;87.86
50302;BME280;36550;50.472;19.744;2023-04-10T07:29:23;98903.58;;;9.57;87.77
50302;BME280;36550;50.472;19.744;2023-04-10T07:32:08;98911.10;;;9.47;87.61
50302;BME280;36550;50.472;19.744;2023-04-10T07:34:51;98906.02;;;9.44;87.45
50302;BME280;36550;50.472;19.744;2023-04-10T07:37:35;98907.27;;;9.48;87.47
50302;BME280;36550;50.472;19.744;2023-04-10T07:40:20;98905.63;;;9.58;87.14
50302;BME280;36550;50.472;19.744;2023-04-10T07:43:04;98904.25;;;9.62;87.06
50302;BME280;36550;50.472;19.744;2023-04-10T07:45:47;98906.05;;;9.65;87.15
50302;BME280;36550;50.472;19.744;2023-04-10T07:48:31;98904.08;;;9.67;87.05
50302;BME280;36550;50.472;19.744;2023-04-10T07:51:15;98905.75;;;9.71;87.29
50302;BME280;36550;50.472;19.744;2023-04-10T07:53:59;98905.50;;;9.77;87.16
50302;BME280;36550;50.472;19.744;2023-04-10T07:56:43;98908.44;;;9.78;86.89
50302;BME280;36550;50.472;19.744;2023-04-10T07:59:28;98906.27;;;9.72;86.68
50302;BME280;36550;50.472;19.744;2023-04-10T08:02:12;98908.15;;;9.65;86.62
50302;BME280;36550;50.472;19.744;2023-04-10T08:04:56;98909.58;;;9.61;86.66
50302;BME280;36550;50.472;19.744;2023-04-10T08:07:39;98908.67;;;9.56;86.81
50302;BME280;36550;50.472;19.744;2023-04-10T08:10:24;98905.35;;;9.56;87.15
50302;BME280;36550;50.472;19.744;2023-04-10T08:13:08;98907.89;;;9.62;87.00
50302;BME280;36550;50.472;19.744;2023-04-10T08:15:52;98903.91;;;9.71;87.02
50302;BME280;36550;50.472;19.744;2023-04-10T08:18:36;98901.50;;;9.79;87.01
50302;BME280;36550;50.472;19.744;2023-04-10T08:21:21;98904.77;;;9.88;86.57
50302;BME280;36550;50.472;19.744;2023-04-10T08:24:05;98901.72;;;9.96;86.22
50302;BME280;36550;50.472;19.744;2023-04-10T08:26:49;98898.73;;;10.09;85.78
50302;BME280;36550;50.472;19.744;2023-04-10T08:29:33;98891.71;;;10.23;85.58
50302;BME280;36550;50.472;19.744;2023-04-10T08:32:17;98890.13;;;10.31;84.82
50302;BME280;36550;50.472;19.744;2023-04-10T08:35:01;98884.77;;;10.36;84.91
50302;BME280;36550;50.472;19.744;2023-04-10T08:37:44;98888.65;;;10.41;84.93
50302;BME280;36550;50.472;19.744;2023-04-10T08:40:28;98888.21;;;10.58;84.50
50302;BME280;36550;50.472;19.744;2023-04-10T08:43:13;98891.90;;;10.80;84.50
50302;BME280;36550;50.472;19.744;2023-04-10T08:45:57;98887.86;;;11.00;84.30
50302;BME280;36550;50.472;19.744;2023-04-10T08:48:47;98889.53;;;11.22;83.83
50302;BME280;36550;50.472;19.744;2023-04-10T08:51:42;98889.05;;;11.35;83.05
50302;BME280;36550;50.472;19.744;2023-04-10T08:54:32;98884.16;;;11.46;82.05
50302;BME280;36550;50.472;19.744;2023-04-10T08:57:16;98886.20;;;11.59;81.96
50302;BME280;36550;50.472;19.744;2023-04-10T09:00:04;98887.83;;;11.70;81.23
50302;BME280;36550;50.472;19.744;2023-04-10T09:02:48;98889.02;;;11.60;80.30
50302;BME280;36550;50.472;19.744;2023-04-10T09:05:34;98894.73;;;11.52;80.88
50302;BME280;36550;50.472;19.744;2023-04-10T09:08:18;98893.16;;;11.43;80.63
50302;BME280;36550;50.472;19.744;2023-04-10T09:11:02;98892.82;;;11.42;80.86
50302;BME280;36550;50.472;19.744;2023-04-10T09:13:46;98889.55;;;11.61;81.27
50302;BME280;36550;50.472;19.744;2023-04-10T09:16:32;98891.33;;;11.74;80.63
50302;BME280;36550;50.472;19.744;2023-04-10T09:19:45;98891.18;;;11.70;79.81
50302;BME280;36550;50.472;19.744;2023-04-10T09:22:31;98884.03;;;11.69;79.61
50302;BME280;36550;50.472;19.744;2023-04-10T09:28:16;98877.09;;;11.89;79.02
50302;BME280;36550;50.472;19.744;2023-04-10T09:30:59;98877.38;;;11.98;79.47
50302;BME280;36550;50.472;19.744;2023-04-10T09:33:43;98873.90;;;11.90;78.97
50302;BME280;36550;50.472;19.744;2023-04-10T09:36:28;98876.42;;;11.79;78.63
50302;BME280;36550;50.472;19.744;2023-04-10T09:39:12;98875.10;;;11.83;78.75
50302;BME280;36550;50.472;19.744;2023-04-10T09:41:56;98877.45;;;11.94;78.82
50302;BME280;36550;50.472;19.744;2023-04-10T09:44:41;98876.20;;;12.10;78.88
50302;BME280;36550;50.472;19.744;2023-04-10T09:47:26;98867.77;;;12.26;78.88
50302;BME280;36550;50.472;19.744;2023-04-10T09:50:10;98867.10;;;12.31;78.32
50302;BME280;36550;50.472;19.744;2023-04-10T09:52:58;98865.27;;;12.25;77.85
50302;BME280;36550;50.472;19.744;2023-04-10T09:55:42;98861.67;;;12.34;78.12
50302;BME280;36550;50.472;19.744;2023-04-10T09:58:27;98861.35;;;12.50;77.46
50302;BME280;36550;50.472;19.744;2023-04-10T10:01:11;98856.65;;;12.77;77.23
50302;BME280;36550;50.472;19.744;2023-04-10T10:04:00;98851.13;;;12.82;76.64
50302;BME280;36550;50.472;19.744;2023-04-10T10:06:44;98853.05;;;12.81;76.28
50302;BME280;36550;50.472;19.744;2023-04-10T10:09:29;98855.19;;;12.89;76.52
50302;BME280;36550;50.472;19.744;2023-04-10T10:12:15;98852.79;;;12.95;77.21
50302;BME280;36550;50.472;19.744;2023-04-10T10:17:58;98847.38;;;13.15;76.68
50302;BME280;36550;50.472;19.744;2023-04-10T10:20:44;98848.11;;;13.28;75.75
50302;BME280;36550;50.472;19.744;2023-04-10T10:23:31;98847.50;;;13.28;75.17
50302;BME280;36550;50.472;19.744;2023-04-10T10:26:16;98843.86;;;13.39;75.32
50302;BME280;36550;50.472;19.744;2023-04-10T10:29:06;98841.77;;;13.58;73.97
50302;BME280;36550;50.472;19.744;2023-04-10T10:31:53;98842.55;;;13.96;73.96
50302;BME280;36550;50.472;19.744;2023-04-10T10:34:38;98833.25;;;14.30;74.02
50302;BME280;36550;50.472;19.744;2023-04-10T10:37:22;98833.58;;;14.53;72.55
50302;BME280;36550;50.472;19.744;2023-04-10T10:40:16;98828.87;;;14.78;71.86
50302;BME280;36550;50.472;19.744;2023-04-10T10:43:13;98827.39;;;15.28;72.95
50302;BME280;36550;50.472;19.744;2023-04-10T10:46:03;98823.30;;;15.65;70.40
50302;BME280;36550;50.472;19.744;2023-04-10T10:48:57;98814.75;;;15.99;70.17
50302;BME280;36550;50.472;19.744;2023-04-10T10:51:49;98812.34;;;16.25;68.36
50302;BME280;36550;50.472;19.744;2023-04-10T10:54:34;98806.16;;;16.21;68.61
50302;BME280;36550;50.472;19.744;2023-04-10T10:57:45;98805.80;;;16.21;66.97
50302;BME280;36550;50.472;19.744;2023-04-10T11:03:43;98803.38;;;15.94;66.92
50302;BME280;36550;50.472;19.744;2023-04-10T11:06:48;98801.60;;;15.87;67.29
50302;BME280;36550;50.472;19.744;2023-04-10T11:09:44;98801.77;;;15.61;66.70
50302;BME280;36550;50.472;19.744;2023-04-10T11:15:57;98791.89;;;15.63;68.56
50302;BME280;36550;50.472;19.744;2023-04-10T11:21:29;98789.65;;;15.99;68.84
50302;BME280;36550;50.472;19.744;2023-04-10T11:24:14;98785.50;;;16.03;67.11
50302;BME280;36550;50.472;19.744;2023-04-10T11:26:58;98786.56;;;15.82;65.68
50302;BME280;36550;50.472;19.744;2023-04-10T11:29:42;98780.98;;;15.56;66.92
50302;BME280;36550;50.472;19.744;2023-04-10T11:32:26;98777.19;;;15.30;66.09
50302;BME280;36550;50.472;19.744;2023-04-10T11:35:10;98773.45;;;15.07;66.15
50302;BME280;36550;50.472;19.744;2023-04-10T11:38:11;98767.70;;;14.97;67.37
50302;BME280;36550;50.472;19.744;2023-04-10T11:41:00;98765.79;;;15.12;68.04
50302;BME280;36550;50.472;19.744;2023-04-10T11:43:50;98757.20;;;15.31;67.89
50302;BME280;36550;50.472;19.744;2023-04-10T11:46:39;98753.27;;;15.43;67.93
50302;BME280;36550;50.472;19.744;2023-04-10T11:49:26;98756.12;;;15.34;65.45
50302;BME280;36550;50.472;19.744;2023-04-10T11:52:10;98750.86;;;15.14;65.48
50302;BME280;36550;50.472;19.744;2023-04-10T11:54:55;98747.31;;;15.14;67.13
50302;BME280;36550;50.472;19.744;2023-04-10T11:57:39;98746.54;;;15.14;65.72
50302;BME280;36550;50.472;19.744;2023-04-10T12:00:23;98744.64;;;14.99;65.31
50302;BME280;36550;50.472;19.744;2023-04-10T12:03:06;98743.04;;;14.93;66.25
50302;BME280;36550;50.472;19.744;2023-04-10T12:05:50;98736.91;;;14.90;66.88
50302;BME280;36550;50.472;19.744;2023-04-10T12:08:40;98735.60;;;14.91;67.39
50302;BME280;36550;50.472;19.744;2023-04-10T12:11:25;98723.96;;;14.95;67.97
50302;BME280;36550;50.472;19.744;2023-04-10T12:14:09;98716.11;;;14.96;67.98
50302;BME280;36550;50.472;19.744;2023-04-10T12:16:53;98715.09;;;14.86;66.59
50302;BME280;36550;50.472;19.744;2023-04-10T12:19:38;98710.38;;;14.81;67.39
50302;BME280;36550;50.472;19.744;2023-04-10T12:22:22;98703.45;;;14.90;67.03
50302;BME280;36550;50.472;19.744;2023-04-10T12:25:11;98694.73;;;14.82;67.03
50302;BME280;36550;50.472;19.744;2023-04-10T12:27:55;98696.05;;;14.69;66.72
50302;BME280;36550;50.472;19.744;2023-04-10T12:30:48;98690.31;;;14.59;66.66
50302;BME280;36550;50.472;19.744;2023-04-10T12:33:32;98686.64;;;14.55;67.18
50302;BME280;36550;50.472;19.744;2023-04-10T12:36:20;98677.42;;;14.66;67.85
50302;BME280;36550;50.472;19.744;2023-04-10T12:39:21;98670.80;;;14.90;67.75
50302;BME280;36550;50.472;19.744;2023-04-10T12:42:16;98665.73;;;14.95;63.46
50302;BME280;36550;50.472;19.744;2023-04-10T12:45:01;98664.66;;;14.94;64.98
50302;BME280;36550;50.472;19.744;2023-04-10T12:47:48;98662.42;;;14.93;65.34
50302;BME280;36550;50.472;19.744;2023-04-10T12:50:45;98656.98;;;14.93;65.37
50302;BME280;36550;50.472;19.744;2023-04-10T12:53:30;98653.92;;;14.95;65.26
50302;BME280;36550;50.472;19.744;2023-04-10T12:56:14;98647.09;;;15.02;65.84
50302;BME280;36550;50.472;19.744;2023-04-10T12:59:07;98642.67;;;15.14;65.35
50302;BME280;36550;50.472;19.744;2023-04-10T13:01:51;98637.83;;;15.25;65.07
50302;BME280;36550;50.472;19.744;2023-04-10T13:04:36;98633.45;;;15.33;65.60
50302;BME280;36550;50.472;19.744;2023-04-10T13:07:20;98630.48;;;15.37;64.35
50302;BME280;36550;50.472;19.744;2023-04-10T13:10:07;98627.29;;;15.35;64.36
50302;BME280;36550;50.472;19.744;2023-04-10T13:12:51;98631.10;;;15.35;63.18
50302;BME280;36550;50.472;19.744;2023-04-10T13:15:36;98630.50;;;15.29;61.51
50302;BME280;36550;50.472;19.744;2023-04-10T13:18:20;98623.95;;;15.40;62.18
50302;BME280;36550;50.472;19.744;2023-04-10T13:21:04;98620.34;;;15.62;62.95
50302;BME280;36550;50.472;19.744;2023-04-10T13:23:48;98616.19;;;15.98;63.42
50302;BME280;36550;50.472;19.744;2023-04-10T13:26:32;98610.14;;;16.29;59.50
50302;BME280;36550;50.472;19.744;2023-04-10T13:29:16;98603.98;;;16.63;61.84
50302;BME280;36550;50.472;19.744;2023-04-10T13:32:01;98598.48;;;16.88;60.00
50302;BME280;36550;50.472;19.744;2023-04-10T13:34:48;98590.78;;;17.07;60.67
50302;BME280;36550;50.472;19.744;2023-04-10T13:37:32;98584.17;;;17.14;60.64
50302;BME280;36550;50.472;19.744;2023-04-10T13:40:16;98581.19;;;17.08;60.36
50302;BME280;36550;50.472;19.744;2023-04-10T13:42:59;98581.00;;;16.95;59.46
50302;BME280;36550;50.472;19.744;2023-04-10T13:45:43;98583.46;;;16.72;59.02
50302;BME280;36550;50.472;19.744;2023-04-10T13:48:27;98580.73;;;16.55;60.29
50302;BME280;36550;50.472;19.744;2023-04-10T13:51:11;98580.14;;;16.37;59.41
50302;BME280;36550;50.472;19.744;2023-04-10T13:53:55;98583.04;;;16.15;59.36
50302;BME280;36550;50.472;19.744;2023-04-10T13:56:38;98580.77;;;15.91;59.57
50302;BME280;36550;50.472;19.744;2023-04-10T13:59:24;98590.41;;;15.66;59.67
50302;BME280;36550;50.472;19.744;2023-04-10T14:02:08;98601.52;;;15.23;59.32
50302;BME280;36550;50.472;19.744;2023-04-10T14:04:52;98592.36;;;14.48;62.48
50302;BME280;36550;50.472;19.744;2023-04-10T14:07:36;98607.64;;;12.98;72.76
50302;BME280;36550;50.472;19.744;2023-04-10T14:10:20;98610.15;;;11.79;75.46
50302;BME280;36550;50.472;19.744;2023-04-10T14:13:05;98600.27;;;11.17;73.02
50302;BME280;36550;50.472;19.744;2023-04-10T14:15:51;98596.44;;;10.89;74.19
50302;BME280;36550;50.472;19.744;2023-04-10T14:18:36;98591.39;;;10.91;75.74
50302;BME280;36550;50.472;19.744;2023-04-10T14:21:20;98587.38;;;11.05;76.52
50302;BME280;36550;50.472;19.744;2023-04-10T14:24:04;98584.23;;;11.25;77.71
50302;BME280;36550;50.472;19.744;2023-04-10T14:26:49;98580.52;;;11.55;78.65
50302;BME280;36550;50.472;19.744;2023-04-10T14:29:35;98580.62;;;11.76;79.29
50302;BME280;36550;50.472;19.744;2023-04-10T14:32:19;98571.59;;;11.90;80.02
50302;BME280;36550;50.472;19.744;2023-04-10T14:35:03;98569.52;;;12.01;80.63
50302;BME280;36550;50.472;19.744;2023-04-10T14:37:47;98561.39;;;12.06;81.16
50302;BME280;36550;50.472;19.744;2023-04-10T14:40:31;98557.89;;;12.03;81.38
50302;BME280;36550;50.472;19.744;2023-04-10T14:43:16;98561.91;;;11.97;81.70
50302;BME280;36550;50.472;19.744;2023-04-10T14:45:59;98563.13;;;11.90;81.83
50302;BME280;36550;50.472;19.744;2023-04-10T14:48:44;98563.37;;;11.81;81.92
50302;BME280;36550;50.472;19.744;2023-04-10T14:51:28;98561.93;;;11.75;81.98
50302;BME280;36550;50.472;19.744;2023-04-10T14:54:12;98564.18;;;11.77;82.28
50302;BME280;36550;50.472;19.744;2023-04-10T14:56:56;98569.40;;;11.59;81.27